sensor_id;sensor_type;location;lat;lon;timestamp;P1;durP1;ratioP1;P2;durP2;ratioP2
64500;SDS011;50874;24.150;-110.320;2023-05-10T00:00:17;16.77;;;3.17;;
64500;SDS011;50874;24.150;-110.320;2023-05-10T00:02:44;19.08;;;3.00;;
64500;SDS011;50874;24.150;-110.320;2023-05-10T00:05:10;14.30;;;1.95;;
64500;SDS011;50874;24.150;-110.320;2023-05-10T00:07:37;7.10;;;2.10;;
64500;SDS011;50874;24.150;-110.320;2023-05-10T00:10:03;11.32;;;1.90;;
64500;SDS011;50874;24.150;-110.320;2023-05-10T00:12:30;11.55;;;2.72;;
64500;SDS011;50874;24.150;-110.320;2023-05-10T00:14:56;10.02;;;2.08;;
64500;SDS011;50874;24.150;-110.320;2023-05-10T00:17:23;13.00;;;2.03;;
64500;SDS011;50874;24.150;-110.320;2023-05-10T00:19:49;7.93;;;2.42;;
64500;SDS011;50874;24.150;-110.320;2023-05-10T00:22:16;10.13;;;2.50;;
64500;SDS011;50874;24.150;-110.320;2023-05-10T00:24:42;10.93;;;1.90;;
64500;SDS011;50874;24.150;-110.320;2023-05-10T00:27:09;24.23;;;2.35;;
64500;SDS011;50874;24.150;-110.320;2023-05-10T00:29:35;23.90;;;2.95;;
64500;SDS011;50874;24.150;-110.320;2023-05-10T00:32:01;22.42;;;3.20;;
64500;SDS011;50874;24.150;-110.320;2023-05-10T00:34:28;26.65;;;3.67;;
64500;SDS011;50874;24.150;-110.320;2023-05-10T00:36:54;20.33;;;3.13;;
64500;SDS011;50874;24.150;-110.320;2023-05-10T00:39:21;12.63;;;1.88;;
64500;SDS011;50874;24.150;-110.320;2023-05-10T00:41:47;16.30;;;2.72;;
64500;SDS011;50874;24.150;-110.320;2023-05-10T00:44:14;21.27;;;2.67;;
64500;SDS011;50874;24.150;-110.320;2023-05-10T00:46:41;29.45;;;3.13;;
64500;SDS011;50874;24.150;-110.320;2023-05-10T00:49:07;16.52;;;2.17;;
64500;SDS011;50874;24.150;-110.320;2023-05-10T00:51:34;26.83;;;3.33;;
64500;SDS011;50874;24.150;-110.320;2023-05-10T00:54:00;16.67;;;2.47;;
64500;SDS011;50874;24.150;-110.320;2023-05-10T00:56:27;12.32;;;2.53;;
64500;SDS011;50874;24.150;-110.320;2023-05-10T00:58:55;7.90;;;2.63;;
64500;SDS011;50874;24.150;-110.320;2023-05-10T01:01:22;19.08;;;3.00;;
64500;SDS011;50874;24.150;-110.320;2023-05-10T01:03:48;30.15;;;3.63;;
64500;SDS011;50874;24.150;-110.320;2023-05-10T01:06:16;9.18;;;2.25;;
64500;SDS011;50874;24.150;-110.320;2023-05-10T01:08:42;10.95;;;2.80;;
64500;SDS011;50874;24.150;-110.320;2023-05-10T01:11:08;16.40;;;2.40;;
64500;SDS011;50874;24.150;-110.320;2023-05-10T01:13:39;23.20;;;3.10;;
64500;SDS011;50874;24.150;-110.320;2023-05-10T01:16:08;15.52;;;2.53;;
64500;SDS011;50874;24.150;-110.320;2023-05-10T01:18:40;20.95;;;3.05;;
64500;SDS011;50874;24.150;-110.320;2023-05-10T01:35:09;19.80;;;4.00;;
64500;SDS011;50874;24.150;-110.320;2023-05-10T01:44:24;12.80;;;2.10;;
64500;SDS011;50874;24.150;-110.320;2023-05-10T01:46:37;14.13;;;2.95;;
64500;SDS011;50874;24.150;-110.320;2023-05-10T01:49:24;20.98;;;3.28;;
64500;SDS011;50874;24.150;-110.320;2023-05-10T01:51:56;19.95;;;3.55;;
64500;SDS011;50874;24.150;-110.320;2023-05-10T01:54:33;18.80;;;2.95;;
64500;SDS011;50874;24.150;-110.320;2023-05-10T01:57:05;19.10;;;4.85;;
64500;SDS011;50874;24.150;-110.320;2023-05-10T01:59:35;22.23;;;4.03;;
64500;SDS011;50874;24.150;-110.320;2023-05-10T02:02:06;15.68;;;3.50;;
64500;SDS011;50874;24.150;-110.320;2023-05-10T02:04:37;37.10;;;4.47;;
64500;SDS011;50874;24.150;-110.320;2023-05-10T02:07:06;26.05;;;3.55;;
64500;SDS011;50874;24.150;-110.320;2023-05-10T02:09:34;31.85;;;3.55;;
64500;SDS011;50874;24.150;-110.320;2023-05-10T02:12:02;18.65;;;3.60;;
64500;SDS011;50874;24.150;-110.320;2023-05-10T02:14:32;28.17;;;6.03;;
64500;SDS011;50874;24.150;-110.320;2023-05-10T02:17:02;21.23;;;4.75;;
64500;SDS011;50874;24.150;-110.320;2023-05-10T02:19:32;20.17;;;3.40;;
64500;SDS011;50874;24.150;-110.320;2023-05-10T02:21:59;25.33;;;3.88;;
64500;SDS011;50874;24.150;-110.320;2023-05-10T02:24:27;18.77;;;3.33;;
64500;SDS011;50874;24.150;-110.320;2023-05-10T02:26:55;22.67;;;3.53;;
64500;SDS011;50874;24.150;-110.320;2023-05-10T02:29:23;22.58;;;3.47;;
64500;SDS011;50874;24.150;-110.320;2023-05-10T02:31:52;16.48;;;3.38;;
64500;SDS011;50874;24.150;-110.320;2023-05-10T02:34:23;16.45;;;3.53;;
64500;SDS011;50874;24.150;-110.320;2023-05-10T02:36:53;17.63;;;3.53;;
64500;SDS011;50874;24.150;-110.320;2023-05-10T02:39:21;15.80;;;3.67;;
64500;SDS011;50874;24.150;-110.320;2023-05-10T02:41:50;27.33;;;3.72;;
64500;SDS011;50874;24.150;-110.320;2023-05-10T02:44:18;22.00;;;4.07;;
64500;SDS011;50874;24.150;-110.320;2023-05-10T02:46:46;27.25;;;4.38;;
64500;SDS011;50874;24.150;-110.320;2023-05-10T02:49:13;22.23;;;4.10;;
64500;SDS011;50874;24.150;-110.320;2023-05-10T02:51:44;25.92;;;4.57;;
64500;SDS011;50874;24.150;-110.320;2023-05-10T02:57:07;15.52;;;3.67;;
64500;SDS011;50874;24.150;-110.320;2023-05-10T02:59:40;22.17;;;4.18;;
64500;SDS011;50874;24.150;-110.320;2023-05-10T03:02:12;21.48;;;5.60;;
64500;SDS011;50874;24.150;-110.320;2023-05-10T03:04:38;31.40;;;4.68;;
64500;SDS011;50874;24.150;-110.320;2023-05-10T03:07:05;21.08;;;3.75;;
64500;SDS011;50874;24.150;-110.320;2023-05-10T03:09:32;22.50;;;3.20;;
64500;SDS011;50874;24.150;-110.320;2023-05-10T03:15:11;28.10;;;3.63;;
64500;SDS011;50874;24.150;-110.320;2023-05-10T03:20:18;20.27;;;3.88;;
64500;SDS011;50874;24.150;-110.320;2023-05-10T03:23:04;15.05;;;3.13;;
64500;SDS011;50874;24.150;-110.320;2023-05-10T03:25:45;24.92;;;4.25;;
64500;SDS011;50874;24.150;-110.320;2023-05-10T03:28:13;21.92;;;3.92;;
64500;SDS011;50874;24.150;-110.320;2023-05-10T03:30:41;18.00;;;3.80;;
64500;SDS011;50874;24.150;-110.320;2023-05-10T03:33:09;24.73;;;4.03;;
64500;SDS011;50874;24.150;-110.320;2023-05-10T03:35:36;20.83;;;4.47;;
64500;SDS011;50874;24.150;-110.320;2023-05-10T03:38:02;20.92;;;3.60;;
64500;SDS011;50874;24.150;-110.320;2023-05-10T03:40:29;19.15;;;3.85;;
64500;SDS011;50874;24.150;-110.320;2023-05-10T03:42:57;16.40;;;3.55;;
64500;SDS011;50874;24.150;-110.320;2023-05-10T03:45:24;20.50;;;3.60;;
64500;SDS011;50874;24.150;-110.320;2023-05-10T03:47:51;18.67;;;3.63;;
64500;SDS011;50874;24.150;-110.320;2023-05-10T03:50:18;22.77;;;3.30;;
64500;SDS011;50874;24.150;-110.320;2023-05-10T03:52:44;21.35;;;4.40;;
64500;SDS011;50874;24.150;-110.320;2023-05-10T03:55:11;20.60;;;3.92;;
64500;SDS011;50874;24.150;-110.320;2023-05-10T03:57:38;18.48;;;4.55;;
64500;SDS011;50874;24.150;-110.320;2023-05-10T04:00:04;14.05;;;3.92;;
64500;SDS011;50874;24.150;-110.320;2023-05-10T04:02:31;24.52;;;3.90;;
64500;SDS011;50874;24.150;-110.320;2023-05-10T04:04:57;22.20;;;4.13;;
64500;SDS011;50874;24.150;-110.320;2023-05-10T04:07:24;24.08;;;4.65;;
64500;SDS011;50874;24.150;-110.320;2023-05-10T04:09:50;27.05;;;4.38;;
64500;SDS011;50874;24.150;-110.320;2023-05-10T04:12:17;22.02;;;4.13;;
64500;SDS011;50874;24.150;-110.320;2023-05-10T04:14:44;27.60;;;4.03;;
64500;SDS011;50874;24.150;-110.320;2023-05-10T04:17:10;27.67;;;4.10;;
64500;SDS011;50874;24.150;-110.320;2023-05-10T04:19:36;20.05;;;4.15;;
64500;SDS011;50874;24.150;-110.320;2023-05-10T04:22:03;22.10;;;3.88;;
64500;SDS011;50874;24.150;-110.320;2023-05-10T04:24:30;21.13;;;3.97;;
64500;SDS011;50874;24.150;-110.320;2023-05-10T04:26:56;25.33;;;4.28;;
64500;SDS011;50874;24.150;-110.320;2023-05-10T04:29:23;21.38;;;3.40;;
64500;SDS011;50874;24.150;-110.320;2023-05-10T04:31:49;24.70;;;4.15;;
64500;SDS011;50874;24.150;-110.320;2023-05-10T04:34:16;19.05;;;3.35;;
64500;SDS011;50874;24.150;-110.320;2023-05-10T04:36:42;21.65;;;4.22;;
64500;SDS011;50874;24.150;-110.320;2023-05-10T04:39:09;31.83;;;4.97;;
64500;SDS011;50874;24.150;-110.320;2023-05-10T04:41:37;24.98;;;4.60;;
64500;SDS011;50874;24.150;-110.320;2023-05-10T04:44:03;18.48;;;3.67;;
64500;SDS011;50874;24.150;-110.320;2023-05-10T04:46:30;19.08;;;3.72;;
64500;SDS011;50874;24.150;-110.320;2023-05-10T04:48:56;17.38;;;3.75;;
64500;SDS011;50874;24.150;-110.320;2023-05-10T04:51:23;18.52;;;4.43;;
64500;SDS011;50874;24.150;-110.320;2023-05-10T04:53:49;26.27;;;4.25;;
64500;SDS011;50874;24.150;-110.320;2023-05-10T04:56:16;19.40;;;4.07;;
64500;SDS011;50874;24.150;-110.320;2023-05-10T04:58:42;17.75;;;4.03;;
64500;SDS011;50874;24.150;-110.320;2023-05-10T05:01:09;29.10;;;4.75;;
64500;SDS011;50874;24.150;-110.320;2023-05-10T05:03:36;12.98;;;3.83;;
64500;SDS011;50874;24.150;-110.320;2023-05-10T05:06:02;23.88;;;4.57;;
64500;SDS011;50874;24.150;-110.320;2023-05-10T05:08:29;20.90;;;3.97;;
64500;SDS011;50874;24.150;-110.320;2023-05-10T05:10:55;19.55;;;4.07;;
64500;SDS011;50874;24.150;-110.320;2023-05-10T05:13:22;27.90;;;4.38;;
64500;SDS011;50874;24.150;-110.320;2023-05-10T05:15:48;17.65;;;4.40;;
64500;SDS011;50874;24.150;-110.320;2023-05-10T05:18:15;16.60;;;4.05;;
64500;SDS011;50874;24.150;-110.320;2023-05-10T05:20:41;14.30;;;3.80;;
64500;SDS011;50874;24.150;-110.320;2023-05-10T05:23:08;23.70;;;4.75;;
64500;SDS011;50874;24.150;-110.320;2023-05-10T05:25:34;19.23;;;4.57;;
64500;SDS011;50874;24.150;-110.320;2023-05-10T05:28:01;18.40;;;3.88;;
64500;SDS011;50874;24.150;-110.320;2023-05-10T05:30:27;24.38;;;4.20;;
64500;SDS011;50874;24.150;-110.320;2023-05-10T05:32:54;25.02;;;4.80;;
64500;SDS011;50874;24.150;-110.320;2023-05-10T05:35:21;24.38;;;5.63;;
64500;SDS011;50874;24.150;-110.320;2023-05-10T05:37:48;27.70;;;5.28;;
64500;SDS011;50874;24.150;-110.320;2023-05-10T05:40:14;21.60;;;5.30;;
64500;SDS011;50874;24.150;-110.320;2023-05-10T05:42:41;31.27;;;4.78;;
64500;SDS011;50874;24.150;-110.320;2023-05-10T05:45:07;13.25;;;3.92;;
64500;SDS011;50874;24.150;-110.320;2023-05-10T05:47:38;25.02;;;4.43;;
64500;SDS011;50874;24.150;-110.320;2023-05-10T05:50:05;31.17;;;4.75;;
64500;SDS011;50874;24.150;-110.320;2023-05-10T05:52:32;27.55;;;5.13;;
64500;SDS011;50874;24.150;-110.320;2023-05-10T05:54:58;18.65;;;4.43;;
64500;SDS011;50874;24.150;-110.320;2023-05-10T05:57:25;32.63;;;6.40;;
64500;SDS011;50874;24.150;-110.320;2023-05-10T05:59:51;19.27;;;4.60;;
64500;SDS011;50874;24.150;-110.320;2023-05-10T06:02:18;23.13;;;3.80;;
64500;SDS011;50874;24.150;-110.320;2023-05-10T06:04:44;17.63;;;4.10;;
64500;SDS011;50874;24.150;-110.320;2023-05-10T06:07:11;28.45;;;5.50;;
64500;SDS011;50874;24.150;-110.320;2023-05-10T06:09:38;26.33;;;4.82;;
64500;SDS011;50874;24.150;-110.320;2023-05-10T06:12:04;22.70;;;4.55;;
64500;SDS011;50874;24.150;-110.320;2023-05-10T06:14:31;23.55;;;5.47;;
64500;SDS011;50874;24.150;-110.320;2023-05-10T06:16:57;26.40;;;5.22;;
64500;SDS011;50874;24.150;-110.320;2023-05-10T06:19:24;20.92;;;3.75;;
64500;SDS011;50874;24.150;-110.320;2023-05-10T06:21:51;28.25;;;4.90;;
64500;SDS011;50874;24.150;-110.320;2023-05-10T06:24:18;24.30;;;4.43;;
64500;SDS011;50874;24.150;-110.320;2023-05-10T06:26:44;20.85;;;4.65;;
64500;SDS011;50874;24.150;-110.320;2023-05-10T06:29:10;18.65;;;4.68;;
64500;SDS011;50874;24.150;-110.320;2023-05-10T06:31:37;21.95;;;4.75;;
64500;SDS011;50874;24.150;-110.320;2023-05-10T06:34:03;24.50;;;4.20;;
64500;SDS011;50874;24.150;-110.320;2023-05-10T06:36:30;29.13;;;4.57;;
64500;SDS011;50874;24.150;-110.320;2023-05-10T06:38:56;23.52;;;3.70;;
64500;SDS011;50874;24.150;-110.320;2023-05-10T06:41:23;23.13;;;4.30;;
64500;SDS011;50874;24.150;-110.320;2023-05-10T06:43:49;21.88;;;4.20;;
64500;SDS011;50874;24.150;-110.320;2023-05-10T06:46:16;28.10;;;4.65;;
64500;SDS011;50874;24.150;-110.320;2023-05-10T06:48:44;25.35;;;4.57;;
64500;SDS011;50874;24.150;-110.320;2023-05-10T06:51:11;24.85;;;4.10;;
64500;SDS011;50874;24.150;-110.320;2023-05-10T06:53:37;18.27;;;3.40;;
64500;SDS011;50874;24.150;-110.320;2023-05-10T06:56:04;17.85;;;3.53;;
64500;SDS011;50874;24.150;-110.320;2023-05-10T06:58:30;25.23;;;3.75;;
64500;SDS011;50874;24.150;-110.320;2023-05-10T07:01:06;24.67;;;4.38;;
64500;SDS011;50874;24.150;-110.320;2023-05-10T07:03:33;18.80;;;3.55;;
64500;SDS011;50874;24.150;-110.320;2023-05-10T07:06:00;27.67;;;5.38;;
64500;SDS011;50874;24.150;-110.320;2023-05-10T07:08:28;21.38;;;3.80;;
64500;SDS011;50874;24.150;-110.320;2023-05-10T07:11:01;21.25;;;4.70;;
64500;SDS011;50874;24.150;-110.320;2023-05-10T07:13:29;15.18;;;3.40;;
64500;SDS011;50874;24.150;-110.320;2023-05-10T07:15:57;16.83;;;3.05;;
64500;SDS011;50874;24.150;-110.320;2023-05-10T07:18:24;21.92;;;4.68;;
64500;SDS011;50874;24.150;-110.320;2023-05-10T07:20:51;12.07;;;3.22;;
64500;SDS011;50874;24.150;-110.320;2023-05-10T07:23:18;20.63;;;3.85;;
64500;SDS011;50874;24.150;-110.320;2023-05-10T07:25:45;19.45;;;3.85;;
64500;SDS011;50874;24.150;-110.320;2023-05-10T07:28:16;14.98;;;3.55;;
64500;SDS011;50874;24.150;-110.320;2023-05-10T07:30:43;17.60;;;3.92;;
64500;SDS011;50874;24.150;-110.320;2023-05-10T07:33:10;18.10;;;3.50;;
64500;SDS011;50874;24.150;-110.320;2023-05-10T07:35:38;12.35;;;3.22;;
64500;SDS011;50874;24.150;-110.320;2023-05-10T07:38:04;22.92;;;4.47;;
64500;SDS011;50874;24.150;-110.320;2023-05-10T07:40:31;10.00;;;2.65;;
64500;SDS011;50874;24.150;-110.320;2023-05-10T07:42:58;14.70;;;3.20;;
64500;SDS011;50874;24.150;-110.320;2023-05-10T07:45:26;21.85;;;3.55;;
64500;SDS011;50874;24.150;-110.320;2023-05-10T07:47:53;15.93;;;3.78;;
64500;SDS011;50874;24.150;-110.320;2023-05-10T07:50:20;16.98;;;2.60;;
64500;SDS011;50874;24.150;-110.320;2023-05-10T07:52:47;18.98;;;3.35;;
64500;SDS011;50874;24.150;-110.320;2023-05-10T07:55:14;8.52;;;2.47;;
64500;SDS011;50874;24.150;-110.320;2023-05-10T07:57:41;15.35;;;2.55;;
64500;SDS011;50874;24.150;-110.320;2023-05-10T08:00:08;14.52;;;3.28;;
64500;SDS011;50874;24.150;-110.320;2023-05-10T08:02:35;20.50;;;3.58;;
64500;SDS011;50874;24.150;-110.320;2023-05-10T08:05:01;11.05;;;2.85;;
64500;SDS011;50874;24.150;-110.320;2023-05-10T08:07:28;10.15;;;2.92;;
64500;SDS011;50874;24.150;-110.320;2023-05-10T08:09:54;11.88;;;2.40;;
64500;SDS011;50874;24.150;-110.320;2023-05-10T08:12:21;14.23;;;2.80;;
64500;SDS011;50874;24.150;-110.320;2023-05-10T08:14:47;10.13;;;3.00;;
64500;SDS011;50874;24.150;-110.320;2023-05-10T08:17:14;17.15;;;3.33;;
64500;SDS011;50874;24.150;-110.320;2023-05-10T08:19:40;18.15;;;3.53;;
64500;SDS011;50874;24.150;-110.320;2023-05-10T08:22:07;13.88;;;2.67;;
64500;SDS011;50874;24.150;-110.320;2023-05-10T08:24:33;14.60;;;2.78;;
64500;SDS011;50874;24.150;-110.320;2023-05-10T08:27:04;14.80;;;2.85;;
64500;SDS011;50874;24.150;-110.320;2023-05-10T08:29:31;12.40;;;2.72;;
64500;SDS011;50874;24.150;-110.320;2023-05-10T08:31:57;24.42;;;3.95;;
64500;SDS011;50874;24.150;-110.320;2023-05-10T08:34:24;15.63;;;3.90;;
64500;SDS011;50874;24.150;-110.320;2023-05-10T08:36:50;18.30;;;2.85;;
64500;SDS011;50874;24.150;-110.320;2023-05-10T08:39:16;13.07;;;3.67;;
64500;SDS011;50874;24.150;-110.320;2023-05-10T08:41:43;12.65;;;2.42;;
64500;SDS011;50874;24.150;-110.320;2023-05-10T08:44:12;13.43;;;3.70;;
64500;SDS011;50874;24.150;-110.320;2023-05-10T08:46:39;14.00;;;3.22;;
64500;SDS011;50874;24.150;-110.320;2023-05-10T08:49:11;12.00;;;3.05;;
64500;SDS011;50874;24.150;-110.320;2023-05-10T08:51:44;12.40;;;2.55;;
64500;SDS011;50874;24.150;-110.320;2023-05-10T08:54:16;10.07;;;2.47;;
64500;SDS011;50874;24.150;-110.320;2023-05-10T08:56:42;9.20;;;2.20;;
64500;SDS011;50874;24.150;-110.320;2023-05-10T08:59:09;12.43;;;3.28;;
64500;SDS011;50874;24.150;-110.320;2023-05-10T09:01:37;8.18;;;2.30;;
64500;SDS011;50874;24.150;-110.320;2023-05-10T09:04:04;14.48;;;2.72;;
64500;SDS011;50874;24.150;-110.320;2023-05-10T09:06:31;16.48;;;3.88;;
64500;SDS011;50874;24.150;-110.320;2023-05-10T09:08:58;9.68;;;2.67;;
64500;SDS011;50874;24.150;-110.320;2023-05-10T09:11:25;19.05;;;3.45;;
64500;SDS011;50874;24.150;-110.320;2023-05-10T09:13:54;10.05;;;2.25;;
64500;SDS011;50874;24.150;-110.320;2023-05-10T09:16:21;12.85;;;2.15;;
64500;SDS011;50874;24.150;-110.320;2023-05-10T09:18:49;9.88;;;2.83;;
64500;SDS011;50874;24.150;-110.320;2023-05-10T09:21:15;10.40;;;2.00;;
64500;SDS011;50874;24.150;-110.320;2023-05-10T09:23:43;9.55;;;2.10;;
64500;SDS011;50874;24.150;-110.320;2023-05-10T09:26:15;13.95;;;2.80;;
64500;SDS011;50874;24.150;-110.320;2023-05-10T09:28:51;12.43;;;2.63;;
64500;SDS011;50874;24.150;-110.320;2023-05-10T09:31:19;10.30;;;3.13;;
64500;SDS011;50874;24.150;-110.320;2023-05-10T09:33:46;18.20;;;3.67;;
64500;SDS011;50874;24.150;-110.320;2023-05-10T09:36:14;25.05;;;2.65;;
64500;SDS011;50874;24.150;-110.320;2023-05-10T09:38:45;7.47;;;2.28;;
64500;SDS011;50874;24.150;-110.320;2023-05-10T09:41:21;8.45;;;2.75;;
64500;SDS011;50874;24.150;-110.320;2023-05-10T09:43:49;13.68;;;2.55;;
64500;SDS011;50874;24.150;-110.320;2023-05-10T09:46:16;11.63;;;2.53;;
64500;SDS011;50874;24.150;-110.320;2023-05-10T09:48:46;14.77;;;3.00;;
64500;SDS011;50874;24.150;-110.320;2023-05-10T09:51:19;8.13;;;1.95;;
64500;SDS011;50874;24.150;-110.320;2023-05-10T09:53:46;9.43;;;2.60;;
64500;SDS011;50874;24.150;-110.320;2023-05-10T09:56:34;10.00;;;2.67;;
64500;SDS011;50874;24.150;-110.320;2023-05-10T09:59:02;9.85;;;2.42;;
64500;SDS011;50874;24.150;-110.320;2023-05-10T10:01:29;15.50;;;2.38;;
64500;SDS011;50874;24.150;-110.320;2023-05-10T10:03:56;9.85;;;2.42;;
64500;SDS011;50874;24.150;-110.320;2023-05-10T10:06:23;9.80;;;2.00;;
64500;SDS011;50874;24.150;-110.320;2023-05-10T10:08:50;24.08;;;3.15;;
64500;SDS011;50874;24.150;-110.320;2023-05-10T10:11:18;18.48;;;2.80;;
64500;SDS011;50874;24.150;-110.320;2023-05-10T10:13:45;10.55;;;2.50;;
64500;SDS011;50874;24.150;-110.320;2023-05-10T10:16:11;13.10;;;2.35;;
64500;SDS011;50874;24.150;-110.320;2023-05-10T10:18:38;10.35;;;2.50;;
64500;SDS011;50874;24.150;-110.320;2023-05-10T10:21:08;8.50;;;2.03;;
64500;SDS011;50874;24.150;-110.320;2023-05-10T10:23:34;7.93;;;2.25;;
64500;SDS011;50874;24.150;-110.320;2023-05-10T10:26:04;8.13;;;1.85;;
64500;SDS011;50874;24.150;-110.320;2023-05-10T10:28:37;7.10;;;2.17;;
64500;SDS011;50874;24.150;-110.320;2023-05-10T10:31:26;9.90;;;2.50;;
64500;SDS011;50874;24.150;-110.320;2023-05-10T10:34:10;12.00;;;2.25;;
64500;SDS011;50874;24.150;-110.320;2023-05-10T10:36:45;11.43;;;2.20;;
64500;SDS011;50874;24.150;-110.320;2023-05-10T10:39:12;10.70;;;1.98;;
64500;SDS011;50874;24.150;-110.320;2023-05-10T10:41:50;7.18;;;2.28;;
64500;SDS011;50874;24.150;-110.320;2023-05-10T10:44:25;10.52;;;2.38;;
64500;SDS011;50874;24.150;-110.320;2023-05-10T11:00:20;7.45;;;1.80;;
64500;SDS011;50874;24.150;-110.320;2023-05-10T11:03:04;11.40;;;1.60;;
64500;SDS011;50874;24.150;-110.320;2023-05-10T11:05:44;10.52;;;2.38;;
64500;SDS011;50874;24.150;-110.320;2023-05-10T11:08:29;4.55;;;2.00;;
64500;SDS011;50874;24.150;-110.320;2023-05-10T11:13:30;8.45;;;2.55;;
64500;SDS011;50874;24.150;-110.320;2023-05-10T11:15:58;23.20;;;2.60;;
64500;SDS011;50874;24.150;-110.320;2023-05-10T11:18:36;10.75;;;2.10;;
64500;SDS011;50874;24.150;-110.320;2023-05-10T11:21:03;7.72;;;2.25;;
64500;SDS011;50874;24.150;-110.320;2023-05-10T11:26:13;7.38;;;2.10;;
64500;SDS011;50874;24.150;-110.320;2023-05-10T11:28:46;9.05;;;1.58;;
64500;SDS011;50874;24.150;-110.320;2023-05-10T11:31:17;15.10;;;2.65;;
64500;SDS011;50874;24.150;-110.320;2023-05-10T11:33:50;6.07;;;1.63;;
64500;SDS011;50874;24.150;-110.320;2023-05-10T11:36:25;9.80;;;2.40;;
64500;SDS011;50874;24.150;-110.320;2023-05-10T11:38:54;13.48;;;2.85;;
64500;SDS011;50874;24.150;-110.320;2023-05-10T11:41:22;7.82;;;2.67;;
64500;SDS011;50874;24.150;-110.320;2023-05-10T11:43:50;10.55;;;2.10;;
64500;SDS011;50874;24.150;-110.320;2023-05-10T11:46:19;9.52;;;2.47;;
64500;SDS011;50874;24.150;-110.320;2023-05-10T11:48:51;7.47;;;2.38;;
64500;SDS011;50874;24.150;-110.320;2023-05-10T11:51:23;8.80;;;2.85;;
64500;SDS011;50874;24.150;-110.320;2023-05-10T11:53:51;11.73;;;2.05;;
64500;SDS011;50874;24.150;-110.320;2023-05-10T11:56:19;11.32;;;2.30;;
64500;SDS011;50874;24.150;-110.320;2023-05-10T11:58:51;9.95;;;2.78;;
64500;SDS011;50874;24.150;-110.320;2023-05-10T12:01:21;10.60;;;2.13;;
64500;SDS011;50874;24.150;-110.320;2023-05-10T12:03:50;10.63;;;2.85;;
64500;SDS011;50874;24.150;-110.320;2023-05-10T12:06:20;14.25;;;2.97;;
64500;SDS011;50874;24.150;-110.320;2023-05-10T12:08:47;8.30;;;1.90;;
64500;SDS011;50874;24.150;-110.320;2023-05-10T12:11:18;6.85;;;1.88;;
64500;SDS011;50874;24.150;-110.320;2023-05-10T12:13:47;12.10;;;2.20;;
64500;SDS011;50874;24.150;-110.320;2023-05-10T12:16:18;8.15;;;2.10;;
64500;SDS011;50874;24.150;-110.320;2023-05-10T12:18:49;7.70;;;1.95;;
64500;SDS011;50874;24.150;-110.320;2023-05-10T12:21:24;11.45;;;2.00;;
64500;SDS011;50874;24.150;-110.320;2023-05-10T12:23:52;4.95;;;2.00;;
64500;SDS011;50874;24.150;-110.320;2023-05-10T12:26:23;13.73;;;2.38;;
64500;SDS011;50874;24.150;-110.320;2023-05-10T12:28:52;9.95;;;2.13;;
64500;SDS011;50874;24.150;-110.320;2023-05-10T12:31:19;7.70;;;2.20;;
64500;SDS011;50874;24.150;-110.320;2023-05-10T12:33:46;7.93;;;1.98;;
64500;SDS011;50874;24.150;-110.320;2023-05-10T12:36:15;11.00;;;2.50;;
64500;SDS011;50874;24.150;-110.320;2023-05-10T12:38:43;9.02;;;2.53;;
64500;SDS011;50874;24.150;-110.320;2023-05-10T12:41:14;15.13;;;2.40;;
64500;SDS011;50874;24.150;-110.320;2023-05-10T12:43:41;9.63;;;2.10;;
64500;SDS011;50874;24.150;-110.320;2023-05-10T12:46:08;12.80;;;2.42;;
64500;SDS011;50874;24.150;-110.320;2023-05-10T12:48:37;11.02;;;2.78;;
64500;SDS011;50874;24.150;-110.320;2023-05-10T12:51:04;10.38;;;2.85;;
64500;SDS011;50874;24.150;-110.320;2023-05-10T12:53:34;23.20;;;3.42;;
64500;SDS011;50874;24.150;-110.320;2023-05-10T12:56:01;16.50;;;2.70;;
64500;SDS011;50874;24.150;-110.320;2023-05-10T12:58:28;25.67;;;3.90;;
64500;SDS011;50874;24.150;-110.320;2023-05-10T13:00:55;19.05;;;3.40;;
64500;SDS011;50874;24.150;-110.320;2023-05-10T13:03:22;19.90;;;2.85;;
64500;SDS011;50874;24.150;-110.320;2023-05-10T13:05:48;19.88;;;4.03;;
64500;SDS011;50874;24.150;-110.320;2023-05-10T13:08:15;23.23;;;5.75;;
64500;SDS011;50874;24.150;-110.320;2023-05-10T13:10:41;40.80;;;6.05;;
64500;SDS011;50874;24.150;-110.320;2023-05-10T13:13:08;93.80;;;13.80;;
64500;SDS011;50874;24.150;-110.320;2023-05-10T13:15:35;71.07;;;8.60;;
64500;SDS011;50874;24.150;-110.320;2023-05-10T13:18:01;70.45;;;9.45;;
64500;SDS011;50874;24.150;-110.320;2023-05-10T13:20:28;59.45;;;8.30;;
64500;SDS011;50874;24.150;-110.320;2023-05-10T13:22:54;68.18;;;9.88;;
64500;SDS011;50874;24.150;-110.320;2023-05-10T13:25:20;78.13;;;19.65;;
64500;SDS011;50874;24.150;-110.320;2023-05-10T13:27:47;127.95;;;42.65;;
64500;SDS011;50874;24.150;-110.320;2023-05-10T13:30:13;58.70;;;18.30;;
64500;SDS011;50874;24.150;-110.320;2023-05-10T13:32:40;70.50;;;14.38;;
64500;SDS011;50874;24.150;-110.320;2023-05-10T13:35:07;57.80;;;12.57;;
64500;SDS011;50874;24.150;-110.320;2023-05-10T13:37:33;62.17;;;13.50;;
64500;SDS011;50874;24.150;-110.320;2023-05-10T13:40:02;59.47;;;10.73;;
64500;SDS011;50874;24.150;-110.320;2023-05-10T13:42:29;89.32;;;11.82;;
64500;SDS011;50874;24.150;-110.320;2023-05-10T13:44:59;16.42;;;3.63;;
64500;SDS011;50874;24.150;-110.320;2023-05-10T13:47:27;26.75;;;4.80;;
64500;SDS011;50874;24.150;-110.320;2023-05-10T13:49:53;21.60;;;4.28;;
64500;SDS011;50874;24.150;-110.320;2023-05-10T13:52:20;29.60;;;5.75;;
64500;SDS011;50874;24.150;-110.320;2023-05-10T13:54:46;397.48;;;41.90;;
64500;SDS011;50874;24.150;-110.320;2023-05-10T13:57:13;145.23;;;23.55;;
64500;SDS011;50874;24.150;-110.320;2023-05-10T13:59:41;104.55;;;15.02;;
64500;SDS011;50874;24.150;-110.320;2023-05-10T14:02:08;52.72;;;6.55;;
64500;SDS011;50874;24.150;-110.320;2023-05-10T14:04:35;31.50;;;5.35;;
64500;SDS011;50874;24.150;-110.320;2023-05-10T14:07:02;34.03;;;4.55;;
64500;SDS011;50874;24.150;-110.320;2023-05-10T14:09:28;12.43;;;3.10;;
64500;SDS011;50874;24.150;-110.320;2023-05-10T14:11:55;13.13;;;3.13;;
64500;SDS011;50874;24.150;-110.320;2023-05-10T14:14:22;16.42;;;3.85;;
64500;SDS011;50874;24.150;-110.320;2023-05-10T14:16:49;10.98;;;3.28;;
64500;SDS011;50874;24.150;-110.320;2023-05-10T14:19:15;21.40;;;3.38;;
64500;SDS011;50874;24.150;-110.320;2023-05-10T14:21:42;9.77;;;2.47;;
64500;SDS011;50874;24.150;-110.320;2023-05-10T14:24:09;16.25;;;3.00;;
64500;SDS011;50874;24.150;-110.320;2023-05-10T14:26:36;16.70;;;2.42;;
64500;SDS011;50874;24.150;-110.320;2023-05-10T14:29:02;14.90;;;2.53;;
64500;SDS011;50874;24.150;-110.320;2023-05-10T14:31:28;23.90;;;3.33;;
64500;SDS011;50874;24.150;-110.320;2023-05-10T14:33:55;15.90;;;3.13;;
64500;SDS011;50874;24.150;-110.320;2023-05-10T14:36:22;10.50;;;2.40;;
64500;SDS011;50874;24.150;-110.320;2023-05-10T14:38:49;9.50;;;2.25;;
64500;SDS011;50874;24.150;-110.320;2023-05-10T14:41:16;21.95;;;2.80;;
64500;SDS011;50874;24.150;-110.320;2023-05-10T14:43:43;24.30;;;4.43;;
64500;SDS011;50874;24.150;-110.320;2023-05-10T14:46:09;45.63;;;5.53;;
64500;SDS011;50874;24.150;-110.320;2023-05-10T14:48:36;18.30;;;3.83;;
64500;SDS011;50874;24.150;-110.320;2023-05-10T14:51:02;19.83;;;3.45;;